createdAt,value
2022-08-25T00:02:16.038Z,99060.97
2022-08-25T00:04:44.878Z,99062.47
2022-08-25T00:07:20.496Z,99054.72
2022-08-25T00:09:47.255Z,99067.38
2022-08-25T00:12:13.935Z,99049.81
2022-08-25T00:14:40.711Z,99064.00
2022-08-25T00:17:07.377Z,99062.53
2022-08-25T00:19:37.965Z,99063.69
2022-08-25T00:22:06.865Z,99059.97
2022-08-25T00:24:34.163Z,99061.25
2022-08-25T00:27:01.659Z,99062.88
2022-08-25T00:29:30.879Z,99057.63
2022-08-25T00:31:58.451Z,99059.13
2022-08-25T00:34:33.891Z,99060.41
2022-08-25T00:37:01.824Z,99059.88
2022-08-25T00:39:28.763Z,99060.09
2022-08-25T00:41:57.687Z,99063.06
2022-08-25T00:44:27.613Z,99068.81
2022-08-25T00:46:58.520Z,99065.44
2022-08-25T00:49:41.144Z,99064.34
2022-08-25T00:52:14.307Z,99065.00
2022-08-25T00:55:16.827Z,99060.41
2022-08-25T00:57:50.151Z,99058.72
2022-08-25T01:00:24.702Z,99061.69
2022-08-25T01:02:51.990Z,99051.72
2022-08-25T01:05:19.267Z,99061.91
2022-08-25T01:07:46.667Z,99063.28
2022-08-25T01:10:13.830Z,99055.28
2022-08-25T01:12:41.117Z,99057.66
2022-08-25T01:15:11.152Z,99055.22
2022-08-25T01:17:54.352Z,99049.78
2022-08-25T01:20:29.354Z,99053.41
2022-08-25T01:22:58.082Z,99050.94
2022-08-25T01:26:00.403Z,99053.28
2022-08-25T01:28:27.151Z,99061.94
2022-08-25T01:30:53.974Z,99063.59
2022-08-25T01:33:23.312Z,99058.09
2022-08-25T01:35:50.120Z,99062.22
2022-08-25T01:38:17.180Z,99058.59
2022-08-25T01:40:44.260Z,99064.03
2022-08-25T01:43:11.519Z,99067.41
2022-08-25T01:45:41.742Z,99065.84
2022-08-25T01:48:09.901Z,99063.59
2022-08-25T01:50:37.672Z,99066.16
2022-08-25T01:53:18.511Z,99059.13
2022-08-25T01:56:02.745Z,99066.59
2022-08-25T01:58:38.136Z,99061.88
2022-08-25T02:01:11.237Z,99067.16
2022-08-25T02:03:44.458Z,99060.19
2022-08-25T02:06:17.427Z,99064.00
2022-08-25T02:08:44.271Z,99068.28
2022-08-25T02:11:15.328Z,99058.78
2022-08-25T02:13:43.003Z,99065.50
2022-08-25T02:16:16.234Z,99054.88
2022-08-25T02:18:42.875Z,99057.53
2022-08-25T02:21:11.232Z,99056.88
2022-08-25T02:23:37.903Z,99061.28
2022-08-25T02:26:05.151Z,99057.41
2022-08-25T02:28:31.851Z,99058.25
2022-08-25T02:31:01.444Z,99064.00
2022-08-25T02:33:29.095Z,99050.19
2022-08-25T02:35:59.589Z,99050.13
2022-08-25T02:38:27.910Z,99055.03
2022-08-25T02:40:56.801Z,99057.56
2022-08-25T02:43:25.532Z,99057.22
2022-08-25T02:45:55.317Z,99058.38
2022-08-25T02:48:23.232Z,99065.03
2022-08-25T02:50:52.456Z,99057.63
2022-08-25T02:53:21.016Z,99056.09
2022-08-25T02:55:47.690Z,99053.34
2022-08-25T02:58:15.232Z,99051.09
2022-08-25T03:00:42.066Z,99051.63
2022-08-25T03:03:09.970Z,99055.78
2022-08-25T03:05:36.679Z,99053.84
2022-08-25T03:08:05.555Z,99045.50
2022-08-25T03:10:32.450Z,99046.03
2022-08-25T03:12:59.220Z,99043.56
2022-08-25T03:15:27.644Z,99045.06
2022-08-25T03:17:57.756Z,99032.06
2022-08-25T03:20:27.784Z,99030.47
2022-08-25T03:22:57.094Z,99031.13
2022-08-25T03:25:42.160Z,99030.09
2022-08-25T03:28:09.047Z,99021.44
2022-08-25T03:30:35.704Z,99029.19
2022-08-25T03:33:02.864Z,99033.19
2022-08-25T03:35:30.022Z,99020.94
2022-08-25T03:37:59.184Z,99037.03
2022-08-25T03:40:27.029Z,99026.66
2022-08-25T03:42:55.328Z,99030.03
2022-08-25T03:45:22.866Z,99029.88
2022-08-25T03:47:51.297Z,99026.44
2022-08-25T03:50:20.348Z,99020.72
2022-08-25T03:52:56.043Z,99021.84
2022-08-25T03:55:24.707Z,99020.38
2022-08-25T03:57:53.917Z,99013.00
2022-08-25T04:00:23.225Z,99015.44
2022-08-25T04:02:50.324Z,99014.41
2022-08-25T04:05:17.278Z,99020.34
2022-08-25T04:07:43.943Z,99023.56
2022-08-25T04:10:12.323Z,99014.78
2022-08-25T04:12:39.711Z,99018.22
2022-08-25T04:15:09.043Z,99020.84
2022-08-25T04:17:39.876Z,99012.84
2022-08-25T04:20:11.296Z,99016.34
2022-08-25T04:22:40.940Z,99018.03
2022-08-25T04:25:12.521Z,99010.25
2022-08-25T04:27:40.457Z,99005.44
2022-08-25T04:30:07.856Z,99015.38
2022-08-25T04:32:36.717Z,99015.63
2022-08-25T04:35:05.184Z,99016.88
2022-08-25T04:37:33.213Z,99010.81
2022-08-25T04:40:00.322Z,99008.31
2022-08-25T04:42:27.377Z,99012.34
2022-08-25T04:44:54.526Z,99012.84
2022-08-25T04:47:21.956Z,99014.88
2022-08-25T04:49:48.716Z,99016.56
2022-08-25T04:52:15.733Z,99020.31
2022-08-25T04:54:43.648Z,99023.13
2022-08-25T04:57:10.688Z,99027.44
2022-08-25T04:59:37.532Z,99033.19
2022-08-25T05:02:06.347Z,99028.16
2022-08-25T05:04:35.963Z,99031.03
2022-08-25T05:07:04.220Z,99030.09
2022-08-25T05:09:32.611Z,99035.50
2022-08-25T05:12:01.496Z,99025.75
2022-08-25T05:14:28.891Z,99020.50
2022-08-25T05:16:56.216Z,99019.34
2022-08-25T05:19:26.292Z,99023.53
2022-08-25T05:21:53.835Z,99014.59
2022-08-25T05:24:21.979Z,99015.72
2022-08-25T05:26:49.402Z,99014.59
2022-08-25T05:29:16.364Z,99009.75
2022-08-25T05:31:48.278Z,99003.22
2022-08-25T05:34:18.683Z,99012.28
2022-08-25T05:36:45.626Z,99005.53
2022-08-25T05:39:12.701Z,98998.63
2022-08-25T05:41:39.514Z,99001.72
2022-08-25T05:44:06.580Z,98994.69
2022-08-25T05:46:33.320Z,99003.53
2022-08-25T05:49:00.037Z,99002.44
2022-08-25T05:51:26.997Z,98991.88
2022-08-25T05:53:54.223Z,99000.44
2022-08-25T05:56:21.744Z,98997.44
2022-08-25T05:58:49.204Z,98999.94
2022-08-25T06:01:45.265Z,98996.16
2022-08-25T06:04:13.864Z,98992.28
2022-08-25T06:06:40.830Z,98996.28
2022-08-25T06:09:09.390Z,98999.78
2022-08-25T06:11:39.620Z,99002.94
2022-08-25T06:14:08.134Z,98992.81
2022-08-25T06:16:34.865Z,99006.59
2022-08-25T06:19:01.555Z,98995.47
2022-08-25T06:21:28.252Z,99001.91
2022-08-25T06:23:55.287Z,99000.34
2022-08-25T06:26:22.471Z,98990.94
2022-08-25T06:28:50.848Z,98998.19
2022-08-25T06:31:18.730Z,99003.63
2022-08-25T06:33:45.825Z,98999.09
2022-08-25T06:36:12.842Z,98993.50
2022-08-25T06:38:39.512Z,98997.91
2022-08-25T06:41:08.444Z,98996.53
2022-08-25T06:43:38.243Z,98995.25
2022-08-25T06:46:15.076Z,98995.75
2022-08-25T06:48:42.838Z,98992.31
2022-08-25T06:51:14.103Z,98995.53
2022-08-25T06:53:42.776Z,98997.72
2022-08-25T06:56:10.145Z,98996.09
2022-08-25T06:58:38.774Z,99004.63
2022-08-25T07:01:15.754Z,99003.81
2022-08-25T07:03:47.588Z,99001.00
2022-08-25T07:06:15.307Z,99000.13
2022-08-25T07:08:46.656Z,99005.34
2022-08-25T07:11:16.167Z,98993.50
2022-08-25T07:13:44.745Z,98992.63
2022-08-25T07:16:11.880Z,98999.50
2022-08-25T07:18:39.108Z,98996.38
2022-08-25T07:21:08.940Z,98998.88
2022-08-25T07:23:36.829Z,98985.34
2022-08-25T07:26:41.621Z,98999.69
2022-08-25T07:29:32.882Z,98996.25
2022-08-25T07:32:04.801Z,99000.66
2022-08-25T07:34:52.521Z,98996.84
2022-08-25T07:40:18.162Z,98993.47
2022-08-25T07:42:45.548Z,98987.16
2022-08-25T07:45:13.163Z,98991.94
2022-08-25T07:47:40.396Z,98986.28
2022-08-25T07:50:11.562Z,98999.97
2022-08-25T07:52:41.153Z,98987.59
2022-08-25T07:55:11.156Z,98990.59
2022-08-25T07:57:41.141Z,98984.22
2022-08-25T08:00:10.767Z,98985.75
2022-08-25T08:02:41.925Z,98983.38
2022-08-25T08:05:10.841Z,98981.75
2022-08-25T08:07:43.820Z,98984.53
2022-08-25T08:13:02.846Z,98975.00
2022-08-25T08:15:37.832Z,98991.88
2022-08-25T08:18:07.129Z,98985.25
2022-08-25T08:20:42.845Z,98981.00
2022-08-25T08:23:11.812Z,98976.63
2022-08-25T08:25:38.550Z,98991.81
2022-08-25T08:28:07.182Z,98982.84
2022-08-25T08:30:36.523Z,98974.50
2022-08-25T08:33:12.858Z,98976.19
2022-08-25T08:35:41.480Z,98980.25
2022-08-25T08:38:14.578Z,98987.47
2022-08-25T08:41:22.873Z,98980.25
2022-08-25T08:43:59.891Z,98988.66
2022-08-25T08:46:39.186Z,98986.03
2022-08-25T08:49:22.998Z,98979.59
2022-08-25T08:52:00.514Z,98972.13
2022-08-25T08:54:32.748Z,98981.31
2022-08-25T08:57:16.566Z,98968.34
2022-08-25T08:59:52.039Z,98975.66
2022-08-25T09:02:51.701Z,98964.81
2022-08-25T09:05:22.965Z,98960.88
2022-08-25T09:08:20.187Z,98960.16
2022-08-25T09:11:16.154Z,98962.28
2022-08-25T09:14:30.279Z,98960.00
2022-08-25T09:17:14.049Z,98967.56
2022-08-25T09:20:02.758Z,98960.47
2022-08-25T09:23:21.659Z,98944.00
2022-08-25T09:26:25.779Z,98943.13
2022-08-25T09:29:16.290Z,98943.69
2022-08-25T09:31:44.900Z,98944.09
2022-08-25T09:34:29.112Z,98943.44
2022-08-25T09:36:56.708Z,98927.72
2022-08-25T09:39:23.857Z,98922.75
2022-08-25T09:41:53.799Z,98934.25
2022-08-25T09:44:33.011Z,98930.31
2022-08-25T09:47:18.101Z,98922.56
2022-08-25T09:50:01.728Z,98916.91
2022-08-25T09:52:41.295Z,98916.19
2022-08-25T09:55:08.429Z,98905.69
2022-08-25T09:57:37.071Z,98907.63
2022-08-25T10:00:22.000Z,98902.84
2022-08-25T10:03:18.050Z,98896.69
2022-08-25T10:05:56.612Z,98881.75
2022-08-25T10:08:32.840Z,98895.41
2022-08-25T10:11:04.756Z,98898.72
2022-08-25T10:13:40.239Z,98881.25
2022-08-25T10:16:25.913Z,98879.00
2022-08-25T10:19:21.833Z,98882.00
2022-08-25T10:22:10.949Z,98865.88
2022-08-25T10:24:43.962Z,98862.09
2022-08-25T10:28:20.245Z,98865.09
2022-08-25T10:31:09.649Z,98854.84
2022-08-25T10:33:50.375Z,98850.53
2022-08-25T10:36:23.170Z,98850.56
2022-08-25T10:39:01.663Z,98846.13
2022-08-25T10:42:15.541Z,98835.81
2022-08-25T10:45:21.621Z,98832.91
2022-08-25T10:48:36.346Z,98825.38
2022-08-25T10:51:47.005Z,98831.41
2022-08-25T10:54:51.858Z,98830.81
2022-08-25T10:57:29.711Z,98828.63
2022-08-25T11:00:14.916Z,98819.88
2022-08-25T11:03:11.735Z,98816.91
2022-08-25T11:05:59.564Z,98818.38
2022-08-25T11:08:38.169Z,98818.44
2022-08-25T11:11:17.180Z,98809.66
2022-08-25T11:13:52.850Z,98804.53
2022-08-25T11:16:33.884Z,98808.03
2022-08-25T11:19:33.823Z,98802.28
2022-08-25T11:22:12.527Z,98803.81
2022-08-25T11:25:01.121Z,98806.00
2022-08-25T11:27:49.328Z,98799.41
2022-08-25T11:30:18.961Z,98809.66
2022-08-25T11:32:50.878Z,98819.16
2022-08-25T11:35:27.473Z,98808.94
2022-08-25T11:38:12.741Z,98799.44
2022-08-25T11:41:11.199Z,98793.59
2022-08-25T11:44:09.970Z,98805.25
2022-08-25T11:47:00.973Z,98792.13
2022-08-25T11:49:58.104Z,98790.66
2022-08-25T11:52:34.979Z,98801.66
2022-08-25T11:55:36.605Z,98789.94
2022-08-25T11:58:27.743Z,98784.81
2022-08-25T12:01:00.737Z,98791.38
2022-08-25T12:03:36.340Z,98790.69
2022-08-25T12:06:25.271Z,98784.81
2022-08-25T12:09:01.274Z,98780.41
2022-08-25T12:11:51.930Z,98776.00
2022-08-25T12:14:21.894Z,98774.50
2022-08-25T12:16:51.675Z,98778.69
2022-08-25T12:19:36.763Z,98769.44
2022-08-25T12:22:04.778Z,98779.91
2022-08-25T12:24:47.584Z,98766.03
2022-08-25T12:27:43.969Z,98777.31
2022-08-25T12:30:18.359Z,98770.09
2022-08-25T12:33:18.912Z,98765.56
2022-08-25T12:36:11.124Z,98775.94
2022-08-25T12:38:52.120Z,98765.81
2022-08-25T12:41:26.847Z,98770.22
2022-08-25T12:44:35.730Z,98760.00
2022-08-25T12:47:23.709Z,98757.06
2022-08-25T12:49:51.338Z,98760.00
2022-08-25T12:52:22.712Z,98757.06
2022-08-25T12:55:05.375Z,98757.06
2022-08-25T12:57:44.165Z,98753.25
2022-08-25T13:03:21.626Z,98762.56
2022-08-25T13:06:51.921Z,98751.81
2022-08-25T13:10:08.209Z,98752.59
2022-08-25T13:13:05.782Z,98746.69
2022-08-25T13:15:40.212Z,98749.56
2022-08-25T13:18:23.716Z,98743.88
2022-08-25T13:21:03.250Z,98751.22
2022-08-25T13:23:35.029Z,98730.03
2022-08-25T13:26:02.857Z,98736.59
2022-08-25T13:28:36.212Z,98735.13
2022-08-25T13:31:10.043Z,98732.19
2022-08-25T13:33:37.439Z,98727.78
2022-08-25T13:36:23.808Z,98724.81
2022-08-25T13:38:50.802Z,98722.00
2022-08-25T13:41:29.602Z,98726.34
2022-08-25T13:44:01.862Z,98725.63
2022-08-25T13:46:31.462Z,98723.38
2022-08-25T13:49:06.878Z,98724.84
2022-08-25T13:51:37.574Z,98720.25
2022-08-25T13:54:08.484Z,98725.38
2022-08-25T13:56:41.120Z,98720.28
2022-08-25T13:59:40.202Z,98714.31
2022-08-25T14:02:15.212Z,98708.28
2022-08-25T14:04:51.124Z,98719.50
2022-08-25T14:07:24.893Z,98708.34
2022-08-25T14:10:03.553Z,98709.66
2022-08-25T14:12:45.122Z,98704.47
2022-08-25T14:15:33.296Z,98696.34
2022-08-25T14:18:14.032Z,98697.91
2022-08-25T14:20:49.512Z,98694.97
2022-08-25T14:23:22.060Z,98687.94
2022-08-25T14:25:53.962Z,98683.59
2022-08-25T14:28:26.211Z,98684.81
2022-08-25T14:31:00.193Z,98681.78
2022-08-25T14:33:37.946Z,98679.50
2022-08-25T14:36:10.648Z,98673.19
2022-08-25T14:38:39.006Z,98664.06
2022-08-25T14:43:36.971Z,98667.31
2022-08-25T14:46:15.717Z,98664.91
2022-08-25T14:48:45.786Z,98659.06
2022-08-25T14:51:14.929Z,98652.53
2022-08-25T14:53:43.303Z,98656.91
2022-08-25T14:56:10.752Z,98652.34
2022-08-25T14:58:51.108Z,98652.34
2022-08-25T15:01:28.745Z,98652.59
2022-08-25T15:04:06.169Z,98646.16
2022-08-25T15:06:35.585Z,98641.16
2022-08-25T15:09:07.889Z,98643.84
2022-08-25T15:11:36.155Z,98641.88
2022-08-25T15:14:06.100Z,98638.38
2022-08-25T15:16:49.337Z,98642.59
2022-08-25T15:19:20.438Z,98639.53
2022-08-25T15:21:48.007Z,98635.38
2022-08-25T15:24:17.657Z,98640.94
2022-08-25T15:27:05.470Z,98628.88
2022-08-25T15:29:34.736Z,98635.22
2022-08-25T15:32:06.985Z,98635.13
2022-08-25T15:34:35.342Z,98636.72
2022-08-25T15:37:15.538Z,98636.75
2022-08-25T15:39:44.970Z,98633.13
2022-08-25T15:42:12.350Z,98636.66
2022-08-25T15:44:39.879Z,98632.44
2022-08-25T15:47:12.427Z,98626.50
2022-08-25T15:49:39.562Z,98624.19
2022-08-25T15:52:09.605Z,98622.06
2022-08-25T15:54:36.294Z,98624.38
2022-08-25T15:57:03.161Z,98626.66
2022-08-25T15:59:35.624Z,98626.66
2022-08-25T16:02:03.023Z,98618.59
2022-08-25T16:04:31.185Z,98620.09
2022-08-25T16:06:58.301Z,98624.41
2022-08-25T16:09:25.425Z,98621.59
2022-08-25T16:11:55.877Z,98631.31
2022-08-25T16:14:25.523Z,98618.81
2022-08-25T16:16:58.360Z,98617.41
2022-08-25T16:19:28.815Z,98616.47
2022-08-25T16:22:08.799Z,98613.56
2022-08-25T16:24:46.404Z,98620.94
2022-08-25T16:27:14.991Z,98631.19
2022-08-25T16:29:44.060Z,98620.97
2022-08-25T16:32:13.537Z,98616.47
2022-08-25T16:34:40.820Z,98619.56
2022-08-25T16:37:08.489Z,98622.50
2022-08-25T16:39:36.042Z,98617.28
2022-08-25T16:42:06.692Z,98609.34
2022-08-25T16:44:34.381Z,98605.75
2022-08-25T16:47:01.287Z,98609.44
2022-08-25T16:49:28.056Z,98596.16
2022-08-25T16:51:57.704Z,98601.34
2022-08-25T16:54:44.798Z,98597.69
2022-08-25T16:57:11.611Z,98602.09
2022-08-25T16:59:38.309Z,98604.97
2022-08-25T17:02:06.350Z,98601.28
2022-08-25T17:04:33.208Z,98602.09
2022-08-25T17:07:00.007Z,98608.72
2022-08-25T17:09:31.636Z,98599.25
2022-08-25T17:11:58.334Z,98603.63
2022-08-25T17:14:25.574Z,98602.25
2022-08-25T17:16:54.917Z,98602.25
2022-08-25T17:19:23.802Z,98605.88
2022-08-25T17:21:52.101Z,98603.75
2022-08-25T17:24:18.807Z,98602.22
2022-08-25T17:26:49.745Z,98595.00
2022-08-25T17:29:17.989Z,98605.19
2022-08-25T17:31:46.112Z,98602.25
2022-08-25T17:34:16.856Z,98610.31
2022-08-25T17:36:48.029Z,98605.25
2022-08-25T17:39:18.122Z,98597.91
2022-08-25T17:41:45.289Z,98609.59
2022-08-25T17:44:13.854Z,98608.16
2022-08-25T17:46:47.476Z,98609.63
2022-08-25T17:49:16.129Z,98606.69
2022-08-25T17:51:42.989Z,98606.69
2022-08-25T17:54:10.158Z,98608.16
2022-08-25T17:56:37.753Z,98608.09
2022-08-25T17:59:04.637Z,98612.41
2022-08-25T18:01:40.797Z,98610.84
2022-08-25T18:04:14.295Z,98603.44
2022-08-25T18:06:45.091Z,98604.84
2022-08-25T18:09:11.827Z,98616.13
2022-08-25T18:11:38.705Z,98618.78
2022-08-25T18:14:05.774Z,98613.09
2022-08-25T18:16:32.722Z,98612.66
2022-08-25T18:19:01.673Z,98620.63
2022-08-25T18:21:30.453Z,98614.56
2022-08-25T18:23:58.685Z,98612.72
2022-08-25T18:26:26.154Z,98608.00
2022-08-25T18:28:52.997Z,98613.72
2022-08-25T18:31:20.062Z,98610.63
2022-08-25T18:33:47.536Z,98617.56
2022-08-25T18:36:20.282Z,98614.75
2022-08-25T18:39:07.533Z,98619.91
2022-08-25T18:41:39.094Z,98617.97
2022-08-25T18:44:07.596Z,98622.34
2022-08-25T18:46:35.411Z,98613.63
2022-08-25T18:49:02.809Z,98628.25
2022-08-25T18:51:33.142Z,98623.28
2022-08-25T18:54:00.992Z,98616.00
2022-08-25T18:56:28.624Z,98624.66
2022-08-25T18:58:55.348Z,98625.22
2022-08-25T19:01:22.188Z,98626.66
2022-08-25T19:03:49.596Z,98637.72
2022-08-25T19:06:17.432Z,98629.69
2022-08-25T19:08:46.627Z,98630.81
2022-08-25T19:11:14.721Z,98631.31
2022-08-25T19:13:42.989Z,98632.38
2022-08-25T19:16:35.581Z,98628.06
2022-08-25T19:19:05.244Z,98641.00
2022-08-25T19:21:34.332Z,98643.47
2022-08-25T19:24:01.094Z,98637.28
2022-08-25T19:26:30.856Z,98636.97
2022-08-25T19:28:57.745Z,98634.91
2022-08-25T19:31:26.745Z,98635.53
2022-08-25T19:33:55.533Z,98633.84
2022-08-25T19:36:28.297Z,98630.16
2022-08-25T19:38:58.490Z,98621.56
2022-08-25T19:41:27.814Z,98631.88
2022-08-25T19:43:57.488Z,98624.47
2022-08-25T19:46:35.645Z,98635.19
2022-08-25T19:49:22.934Z,98635.59
2022-08-25T19:51:51.995Z,98632.84
2022-08-25T19:54:29.262Z,98637.50
2022-08-25T19:56:57.185Z,98636.03
2022-08-25T19:59:40.737Z,98638.47
2022-08-25T20:02:21.654Z,98637.09
2022-08-25T20:04:56.567Z,98631.16
2022-08-25T20:07:27.802Z,98638.38
2022-08-25T20:09:55.968Z,98639.47
2022-08-25T20:12:24.644Z,98636.06
2022-08-25T20:14:54.357Z,98629.09
2022-08-25T20:17:24.855Z,98631.66
2022-08-25T20:20:00.476Z,98634.38
2022-08-25T20:22:30.751Z,98637.44
2022-08-25T20:25:17.666Z,98638.31
2022-08-25T20:27:53.480Z,98638.31
2022-08-25T20:30:25.051Z,98638.13
2022-08-25T20:32:54.063Z,98641.75
2022-08-25T20:35:26.778Z,98645.19
2022-08-25T20:37:54.691Z,98634.13
2022-08-25T20:40:25.712Z,98637.63
2022-08-25T20:42:53.891Z,98639.63
2022-08-25T20:45:21.826Z,98640.03
2022-08-25T20:47:49.851Z,98636.00
2022-08-25T20:50:18.185Z,98635.31
2022-08-25T20:52:44.935Z,98642.81
2022-08-25T20:55:12.279Z,98645.47
2022-08-25T20:57:40.239Z,98635.84
2022-08-25T21:00:09.554Z,98636.41
2022-08-25T21:02:36.693Z,98637.28
2022-08-25T21:05:04.997Z,98628.44
2022-08-25T21:07:31.832Z,98642.81
2022-08-25T21:10:06.533Z,98642.69
2022-08-25T21:12:38.144Z,98639.63
2022-08-25T21:15:05.753Z,98638.78
2022-08-25T21:17:34.685Z,98640.38
2022-08-25T21:20:01.342Z,98639.38
2022-08-25T21:22:29.101Z,98638.59
2022-08-25T21:24:55.791Z,98631.28
2022-08-25T21:27:23.963Z,98630.56
2022-08-25T21:29:54.521Z,98646.91
2022-08-25T21:32:23.533Z,98640.47
2022-08-25T21:34:56.711Z,98639.13
2022-08-25T21:37:24.698Z,98637.28
2022-08-25T21:39:52.476Z,98635.84
2022-08-25T21:42:22.216Z,98642.56
2022-08-25T21:44:50.126Z,98639.75
2022-08-25T21:47:21.381Z,98638.97
2022-08-25T21:49:49.636Z,98633.66
2022-08-25T21:52:16.753Z,98632.09
2022-08-25T21:54:44.661Z,98634.47
2022-08-25T21:57:11.421Z,98632.59
2022-08-25T21:59:40.460Z,98636.22
2022-08-25T22:02:10.344Z,98636.84
2022-08-25T22:04:39.222Z,98636.50
2022-08-25T22:07:07.882Z,98635.97
2022-08-25T22:09:35.460Z,98636.91
2022-08-25T22:12:03.558Z,98634.38
2022-08-25T22:14:30.986Z,98630.13
2022-08-25T22:16:58.753Z,98630.88
2022-08-25T22:19:25.996Z,98629.38
2022-08-25T22:21:53.764Z,98624.19
2022-08-25T22:24:20.992Z,98627.88
2022-08-25T22:26:49.214Z,98631.25
2022-08-25T22:29:23.627Z,98620.53
2022-08-25T22:31:59.864Z,98626.16
2022-08-25T22:34:34.147Z,98630.34
2022-08-25T22:37:03.867Z,98633.38
2022-08-25T22:39:32.300Z,98633.38
2022-08-25T22:42:01.788Z,98636.06
2022-08-25T22:44:28.521Z,98636.22
2022-08-25T22:46:55.425Z,98634.25
2022-08-25T22:49:22.608Z,98637.88
2022-08-25T22:51:49.879Z,98631.63
2022-08-25T22:54:17.982Z,98632.31
2022-08-25T22:56:44.753Z,98628.25
2022-08-25T22:59:13.675Z,98634.72
2022-08-25T23:01:43.177Z,98625.75
2022-08-25T23:04:10.759Z,98621.84
2022-08-25T23:06:38.979Z,98626.28
2022-08-25T23:09:08.206Z,98625.13
2022-08-25T23:11:38.555Z,98614.72
2022-08-25T23:14:09.353Z,98610.91
2022-08-25T23:16:39.711Z,98616.41
2022-08-25T23:19:10.928Z,98610.72
2022-08-25T23:21:58.964Z,98614.19
2022-08-25T23:24:29.106Z,98609.56
2022-08-25T23:27:01.550Z,98607.81
2022-08-25T23:29:30.091Z,98602.28
2022-08-25T23:31:58.143Z,98605.72
2022-08-25T23:34:27.426Z,98601.63
2022-08-25T23:36:56.253Z,98608.19
2022-08-25T23:39:23.012Z,98603.22
2022-08-25T23:41:50.468Z,98608.31
2022-08-25T23:44:19.246Z,98607.47
2022-08-25T23:46:47.970Z,98607.19
2022-08-25T23:49:23.436Z,98606.97
2022-08-25T23:51:52.752Z,98609.88
2022-08-25T23:54:21.028Z,98598.50
2022-08-25T23:56:51.767Z,98601.88
2022-08-25T23:59:24.629Z,98604.50
